createdAt,value
2022-11-17T00:00:52.807Z,96932.28
2022-11-17T00:03:21.744Z,96948.13
2022-11-17T00:05:50.638Z,96936.28
2022-11-17T00:08:20.951Z,96923.81
2022-11-17T00:10:49.947Z,96924.63
2022-11-17T00:13:36.957Z,96932.53
2022-11-17T00:16:06.862Z,96938.22
2022-11-17T00:18:53.188Z,96941.09
2022-11-17T00:21:23.733Z,96937.09
2022-11-17T00:23:54.660Z,96941.38
2022-11-17T00:26:25.543Z,96942.56
2022-11-17T00:28:55.739Z,96937.25
2022-11-17T00:31:43.633Z,96937.91
2022-11-17T00:34:16.241Z,96941.91
2022-11-17T00:36:47.065Z,96949.13
2022-11-17T00:39:20.188Z,96953.28
2022-11-17T00:41:49.194Z,96947.97
2022-11-17T00:44:18.545Z,96948.34
2022-11-17T00:46:48.493Z,96942.41
2022-11-17T00:49:17.910Z,96943.22
2022-11-17T00:51:46.995Z,96946.84
2022-11-17T00:54:17.353Z,96936.91
2022-11-17T00:56:46.286Z,96929.66
2022-11-17T00:59:15.844Z,96923.69
2022-11-17T01:01:45.442Z,96920.44
2022-11-17T01:04:16.481Z,96915.13
2022-11-17T01:06:48.176Z,96907.84
2022-11-17T01:09:21.322Z,96901.88
2022-11-17T01:11:52.683Z,96891.50
2022-11-17T01:14:24.891Z,96891.13
2022-11-17T01:16:55.202Z,96880.44
2022-11-17T01:19:25.619Z,96885.19
2022-11-17T01:21:54.553Z,96881.13
2022-11-17T01:24:24.905Z,96873.03
2022-11-17T01:26:53.836Z,96884.88
2022-11-17T01:29:22.861Z,96883.25
2022-11-17T01:31:53.529Z,96873.97
2022-11-17T01:34:22.543Z,96881.50
2022-11-17T01:37:08.937Z,96881.34
2022-11-17T01:39:39.268Z,96880.44
2022-11-17T01:42:15.804Z,96882.03
2022-11-17T01:45:03.278Z,96874.81
2022-11-17T01:47:43.873Z,96877.16
2022-11-17T01:50:35.733Z,96880.31
2022-11-17T01:53:10.337Z,96877.09
2022-11-17T01:55:46.114Z,96859.53
2022-11-17T01:58:20.557Z,96861.53
2022-11-17T02:00:49.675Z,96853.88
2022-11-17T02:03:19.211Z,96851.84
2022-11-17T02:05:55.811Z,96858.50
2022-11-17T02:08:29.126Z,96858.44
2022-11-17T02:11:01.701Z,96855.28
2022-11-17T02:13:31.058Z,96843.38
2022-11-17T02:15:59.992Z,96840.13
2022-11-17T02:18:29.106Z,96842.53
2022-11-17T02:21:22.002Z,96831.38
2022-11-17T02:24:26.920Z,96826.47
2022-11-17T02:27:44.376Z,96839.53
2022-11-17T02:30:17.614Z,96841.41
2022-11-17T02:33:01.963Z,96845.97
2022-11-17T02:35:41.964Z,96846.66
2022-11-17T02:38:24.746Z,96844.97
2022-11-17T02:41:00.242Z,96835.53
2022-11-17T02:43:54.663Z,96840.34
2022-11-17T02:46:26.638Z,96827.69
2022-11-17T02:49:00.838Z,96829.59
2022-11-17T02:51:32.130Z,96827.84
2022-11-17T02:54:02.632Z,96832.28
2022-11-17T02:56:31.608Z,96821.94
2022-11-17T02:59:06.213Z,96824.31
2022-11-17T03:02:21.294Z,96821.00
2022-11-17T03:05:06.450Z,96816.94
2022-11-17T03:07:52.726Z,96819.19
2022-11-17T03:10:28.127Z,96825.94
2022-11-17T03:13:03.533Z,96832.50
2022-11-17T03:15:47.189Z,96824.50
2022-11-17T03:18:26.221Z,96826.06
2022-11-17T03:21:11.709Z,96824.44
2022-11-17T03:23:47.334Z,96824.38
2022-11-17T03:26:23.403Z,96824.44
2022-11-17T03:28:54.262Z,96828.44
2022-11-17T03:31:27.399Z,96827.53
2022-11-17T03:33:57.702Z,96824.50
2022-11-17T03:36:31.355Z,96821.81
2022-11-17T03:39:05.339Z,96815.34
2022-11-17T03:41:40.269Z,96822.78
2022-11-17T03:44:09.547Z,96816.47
2022-11-17T03:46:43.893Z,96811.63
2022-11-17T03:49:21.030Z,96811.75
2022-11-17T03:51:50.310Z,96818.41
2022-11-17T03:54:19.496Z,96811.03
2022-11-17T03:56:55.550Z,96815.22
2022-11-17T03:59:31.213Z,96818.81
2022-11-17T04:02:01.643Z,96813.38
2022-11-17T04:04:50.545Z,96816.69
2022-11-17T04:07:19.655Z,96821.91
2022-11-17T04:09:48.574Z,96828.75
2022-11-17T04:12:35.040Z,96831.88
2022-11-17T04:15:21.637Z,96828.66
2022-11-17T04:17:52.062Z,96822.81
2022-11-17T04:20:20.965Z,96822.03
2022-11-17T04:23:06.941Z,96812.94
2022-11-17T04:25:53.976Z,96815.28
2022-11-17T04:28:39.618Z,96814.06
2022-11-17T04:31:12.549Z,96819.75
2022-11-17T04:33:45.434Z,96820.16
2022-11-17T04:36:16.809Z,96815.91
2022-11-17T04:38:48.294Z,96812.44
2022-11-17T04:41:36.308Z,96823.56
2022-11-17T04:44:07.065Z,96830.22
2022-11-17T04:46:37.778Z,96827.56
2022-11-17T04:49:09.227Z,96829.25
2022-11-17T04:51:38.566Z,96828.72
2022-11-17T04:54:10.178Z,96832.88
2022-11-17T04:56:39.708Z,96827.78
2022-11-17T04:59:09.007Z,96826.56
2022-11-17T05:01:38.543Z,96830.56
2022-11-17T05:04:11.210Z,96835.19
2022-11-17T05:06:42.962Z,96826.56
2022-11-17T05:09:14.414Z,96822.78
2022-11-17T05:12:02.001Z,96811.03
2022-11-17T05:14:31.295Z,96809.09
2022-11-17T05:17:09.545Z,96809.31
2022-11-17T05:19:44.246Z,96805.56
2022-11-17T05:22:33.798Z,96811.53
2022-11-17T05:25:02.979Z,96809.88
2022-11-17T05:27:33.359Z,96793.44
2022-11-17T05:30:02.258Z,96803.88
2022-11-17T05:32:31.142Z,96816.97
2022-11-17T05:35:01.436Z,96814.69
2022-11-17T05:37:30.434Z,96808.38
2022-11-17T05:39:59.438Z,96814.75
2022-11-17T05:42:28.413Z,96821.91
2022-11-17T05:44:57.434Z,96823.41
2022-11-17T05:47:26.384Z,96820.38
2022-11-17T05:49:55.300Z,96824.44
2022-11-17T05:52:25.639Z,96817.31
2022-11-17T05:54:54.586Z,96818.19
2022-11-17T05:57:30.853Z,96829.00
2022-11-17T06:00:05.055Z,96826.34
2022-11-17T06:02:45.625Z,96833.25
2022-11-17T06:05:19.775Z,96827.31
2022-11-17T06:07:51.151Z,96835.19
2022-11-17T06:10:20.049Z,96826.47
2022-11-17T06:12:49.090Z,96831.41
2022-11-17T06:15:18.207Z,96835.44
2022-11-17T06:17:53.183Z,96832.03
2022-11-17T06:20:25.684Z,96842.31
2022-11-17T06:22:58.746Z,96834.47
2022-11-17T06:25:30.086Z,96842.41
2022-11-17T06:28:02.023Z,96835.56
2022-11-17T06:30:31.809Z,96840.41
2022-11-17T06:33:01.100Z,96833.78
2022-11-17T06:35:33.475Z,96832.22
2022-11-17T06:38:04.301Z,96825.34
2022-11-17T06:40:33.494Z,96820.81
2022-11-17T06:43:08.451Z,96831.56
2022-11-17T06:45:39.062Z,96820.88
2022-11-17T06:48:09.878Z,96820.09
2022-11-17T06:50:39.259Z,96812.50
2022-11-17T06:53:12.941Z,96816.97
2022-11-17T06:55:42.308Z,96832.97
2022-11-17T06:58:12.432Z,96834.56
2022-11-17T07:00:41.521Z,96832.47
2022-11-17T07:03:12.213Z,96838.53
2022-11-17T07:05:41.184Z,96839.72
2022-11-17T07:08:11.544Z,96838.53
2022-11-17T07:10:44.968Z,96839.63
2022-11-17T07:13:17.004Z,96829.97
2022-11-17T07:15:46.018Z,96829.13
2022-11-17T07:18:14.938Z,96821.44
2022-11-17T07:20:43.888Z,96827.09
2022-11-17T07:23:14.653Z,96818.34
2022-11-17T07:25:43.660Z,96834.63
2022-11-17T07:28:12.573Z,96834.41
2022-11-17T07:30:41.775Z,96835.91
2022-11-17T07:33:10.782Z,96833.72
2022-11-17T07:35:39.742Z,96832.28
2022-11-17T07:38:08.877Z,96837.84
2022-11-17T07:40:40.292Z,96840.28
2022-11-17T07:43:09.443Z,96840.78
2022-11-17T07:45:38.600Z,96837.19
2022-11-17T07:48:08.169Z,96848.72
2022-11-17T07:50:39.871Z,96839.13
2022-11-17T07:53:08.878Z,96826.94
2022-11-17T07:55:41.868Z,96835.38
2022-11-17T07:58:10.869Z,96843.97
2022-11-17T08:00:39.955Z,96849.50
2022-11-17T08:03:10.128Z,96856.75
2022-11-17T08:05:43.385Z,96861.69
2022-11-17T08:08:13.503Z,96858.59
2022-11-17T08:10:44.232Z,96857.91
2022-11-17T08:13:15.542Z,96852.31
2022-11-17T08:15:44.580Z,96855.31
2022-11-17T08:18:13.565Z,96857.44
2022-11-17T08:20:42.516Z,96850.97
2022-11-17T08:23:11.475Z,96840.84
2022-11-17T08:25:41.489Z,96838.31
2022-11-17T08:28:11.916Z,96831.44
2022-11-17T08:30:41.030Z,96823.38
2022-11-17T08:33:10.053Z,96821.03
2022-11-17T08:35:39.103Z,96814.34
2022-11-17T08:38:11.468Z,96821.91
2022-11-17T08:40:40.526Z,96833.13
2022-11-17T08:43:10.875Z,96840.34
2022-11-17T08:45:39.854Z,96829.16
2022-11-17T08:48:08.915Z,96820.75
2022-11-17T08:50:38.017Z,96820.75
2022-11-17T08:53:06.924Z,96832.22
2022-11-17T08:55:41.265Z,96823.38
2022-11-17T08:58:12.927Z,96824.97
2022-11-17T09:00:42.660Z,96828.63
2022-11-17T09:03:12.944Z,96814.44
2022-11-17T09:05:44.899Z,96813.06
2022-11-17T09:11:06.868Z,96811.13
2022-11-17T09:13:38.296Z,96799.94
2022-11-17T09:16:10.357Z,96803.09
2022-11-17T09:18:41.304Z,96808.16
2022-11-17T09:21:13.374Z,96813.06
2022-11-17T09:23:42.580Z,96805.53
2022-11-17T09:26:13.730Z,96814.63
2022-11-17T09:28:45.123Z,96817.78
2022-11-17T09:31:16.783Z,96819.97
2022-11-17T09:33:46.136Z,96815.94
2022-11-17T09:36:17.365Z,96810.19
2022-11-17T09:38:48.029Z,96816.22
2022-11-17T09:41:27.836Z,96827.06
2022-11-17T09:44:11.372Z,96833.16
2022-11-17T09:46:58.128Z,96837.28
2022-11-17T09:49:42.634Z,96836.16
2022-11-17T09:52:19.818Z,96839.28
2022-11-17T09:54:56.064Z,96829.16
2022-11-17T09:57:38.399Z,96837.53
2022-11-17T10:00:15.927Z,96826.94
2022-11-17T10:02:44.996Z,96820.56
2022-11-17T10:05:16.547Z,96824.28
2022-11-17T10:07:52.152Z,96819.44
2022-11-17T10:10:30.834Z,96815.94
2022-11-17T10:13:00.800Z,96810.78
2022-11-17T10:15:39.224Z,96796.78
2022-11-17T10:18:14.523Z,96803.63
2022-11-17T10:20:45.198Z,96810.59
2022-11-17T10:23:16.622Z,96806.41
2022-11-17T10:25:47.345Z,96815.97
2022-11-17T10:28:27.633Z,96811.56
2022-11-17T10:31:01.817Z,96806.25
2022-11-17T10:33:38.158Z,96804.13
2022-11-17T10:36:16.464Z,96802.00
2022-11-17T10:38:47.097Z,96811.72
2022-11-17T10:41:19.868Z,96811.06
2022-11-17T10:43:59.668Z,96803.25
2022-11-17T10:46:41.589Z,96800.81
2022-11-17T10:49:26.711Z,96791.66
2022-11-17T10:52:17.442Z,96786.63
2022-11-17T10:54:46.599Z,96781.19
2022-11-17T10:57:21.289Z,96778.69
2022-11-17T10:59:56.709Z,96787.81
2022-11-17T11:02:34.864Z,96787.09
2022-11-17T11:05:10.280Z,96798.69
2022-11-17T11:07:40.304Z,96804.78
2022-11-17T11:10:17.705Z,96794.34
2022-11-17T11:12:53.623Z,96785.47
2022-11-17T11:15:25.293Z,96793.44
2022-11-17T11:17:55.656Z,96791.25
2022-11-17T11:20:40.823Z,96802.47
2022-11-17T11:23:19.177Z,96798.13
2022-11-17T11:25:56.636Z,96804.03
2022-11-17T11:28:42.704Z,96813.06
2022-11-17T11:31:24.247Z,96812.75
2022-11-17T11:34:07.400Z,96797.19
2022-11-17T11:36:41.952Z,96788.69
2022-11-17T11:39:28.875Z,96791.00
2022-11-17T11:42:18.649Z,96798.88
2022-11-17T11:45:14.247Z,96794.56
2022-11-17T11:48:21.898Z,96795.53
2022-11-17T11:50:57.901Z,96793.47
2022-11-17T11:53:39.768Z,96794.44
2022-11-17T11:56:20.039Z,96790.16
2022-11-17T11:58:58.952Z,96795.44
2022-11-17T12:01:30.387Z,96795.41
2022-11-17T12:04:15.477Z,96794.91
2022-11-17T12:06:54.433Z,96799.06
2022-11-17T12:10:06.166Z,96797.63
2022-11-17T12:12:39.374Z,96784.41
2022-11-17T12:15:29.751Z,96784.13
2022-11-17T12:18:02.836Z,96761.97
2022-11-17T12:21:02.932Z,96784.19
2022-11-17T12:24:17.294Z,96784.91
2022-11-17T12:26:46.298Z,96782.84
2022-11-17T12:29:34.056Z,96787.00
2022-11-17T12:32:03.911Z,96792.78
2022-11-17T12:34:35.892Z,96786.03
2022-11-17T12:37:27.503Z,96794.22
2022-11-17T12:40:07.943Z,96805.25
2022-11-17T12:42:53.056Z,96806.22
2022-11-17T12:45:22.087Z,96801.03
2022-11-17T12:48:18.287Z,96809.06
2022-11-17T12:50:49.800Z,96799.31
2022-11-17T12:53:48.635Z,96801.72
2022-11-17T12:57:04.325Z,96791.03
2022-11-17T12:59:53.995Z,96787.97
2022-11-17T13:02:59.479Z,96777.09
2022-11-17T13:05:30.339Z,96773.03
2022-11-17T13:08:27.182Z,96779.72
2022-11-17T13:11:06.743Z,96783.25
2022-11-17T13:13:37.784Z,96798.69
2022-11-17T13:16:19.872Z,96798.94
2022-11-17T13:18:50.241Z,96795.94
2022-11-17T13:21:30.891Z,96803.06
2022-11-17T13:24:01.496Z,96814.53
2022-11-17T13:26:37.613Z,96808.59
2022-11-17T13:29:11.343Z,96805.69
2022-11-17T13:31:40.645Z,96809.66
2022-11-17T13:34:18.797Z,96812.28
2022-11-17T13:36:55.770Z,96824.88
2022-11-17T13:39:27.909Z,96825.66
2022-11-17T13:41:59.449Z,96839.22
2022-11-17T13:44:30.397Z,96839.91
2022-11-17T13:47:20.734Z,96844.50
2022-11-17T13:49:49.987Z,96849.53
2022-11-17T13:52:39.199Z,96843.44
2022-11-17T13:55:19.929Z,96852.41
2022-11-17T13:57:56.769Z,96853.38
2022-11-17T14:00:27.806Z,96847.47
2022-11-17T14:02:58.130Z,96845.56
2022-11-17T14:05:28.230Z,96851.25
2022-11-17T14:07:59.628Z,96848.88
2022-11-17T14:10:33.139Z,96845.75
2022-11-17T14:13:29.891Z,96842.16
2022-11-17T14:16:01.971Z,96844.25
2022-11-17T14:18:36.930Z,96855.34
2022-11-17T14:21:10.086Z,96861.84
2022-11-17T14:23:39.631Z,96856.75
2022-11-17T14:26:19.707Z,96863.06
2022-11-17T14:28:50.681Z,96870.25
2022-11-17T14:31:21.223Z,96863.78
2022-11-17T14:33:50.601Z,96866.22
2022-11-17T14:36:19.827Z,96873.06
2022-11-17T14:38:49.407Z,96873.59
2022-11-17T14:41:20.496Z,96871.69
2022-11-17T14:43:50.463Z,96874.50
2022-11-17T14:46:24.368Z,96869.75
2022-11-17T14:48:55.421Z,96869.22
2022-11-17T14:51:24.395Z,96860.38
2022-11-17T14:53:54.263Z,96863.97
2022-11-17T14:56:25.328Z,96874.81
2022-11-17T14:58:58.552Z,96881.31
2022-11-17T15:01:31.268Z,96883.31
2022-11-17T15:04:21.113Z,96883.41
2022-11-17T15:06:51.965Z,96888.31
2022-11-17T15:09:21.407Z,96870.81
2022-11-17T15:11:52.081Z,96888.69
2022-11-17T15:14:21.442Z,96876.13
2022-11-17T15:16:52.337Z,96868.19
2022-11-17T15:19:21.255Z,96862.75
2022-11-17T15:21:50.231Z,96865.22
2022-11-17T15:24:19.158Z,96864.50
2022-11-17T15:26:48.097Z,96865.72
2022-11-17T15:29:17.724Z,96863.63
2022-11-17T15:31:47.128Z,96871.84
2022-11-17T15:34:20.404Z,96863.97
2022-11-17T15:36:50.579Z,96867.25
2022-11-17T15:39:20.704Z,96870.03
2022-11-17T15:41:50.805Z,96862.34
2022-11-17T15:44:19.895Z,96857.03
2022-11-17T15:46:48.890Z,96857.78
2022-11-17T15:49:19.493Z,96863.25
2022-11-17T15:51:48.616Z,96869.09
2022-11-17T15:54:20.688Z,96874.06
2022-11-17T15:56:51.001Z,96872.31
2022-11-17T15:59:20.420Z,96879.25
2022-11-17T16:01:50.143Z,96871.78
2022-11-17T16:04:21.652Z,96883.50
2022-11-17T16:06:51.085Z,96875.28
2022-11-17T16:09:20.459Z,96877.31
2022-11-17T16:11:49.607Z,96876.72
2022-11-17T16:14:18.590Z,96880.44
2022-11-17T16:16:48.094Z,96882.94
2022-11-17T16:19:17.286Z,96879.47
2022-11-17T16:21:48.179Z,96876.28
2022-11-17T16:24:17.465Z,96872.47
2022-11-17T16:26:47.578Z,96868.53
2022-11-17T16:29:16.799Z,96867.00
2022-11-17T16:31:46.506Z,96867.09
2022-11-17T16:34:17.977Z,96866.38
2022-11-17T16:36:48.379Z,96870.44
2022-11-17T16:39:18.377Z,96864.91
2022-11-17T16:41:50.178Z,96861.78
2022-11-17T16:44:20.347Z,96861.53
2022-11-17T16:46:50.896Z,96865.69
2022-11-17T16:49:20.928Z,96862.19
2022-11-17T16:51:54.522Z,96872.25
2022-11-17T16:54:23.639Z,96880.69
2022-11-17T16:56:52.965Z,96881.13
2022-11-17T16:59:22.044Z,96882.38
2022-11-17T17:01:51.027Z,96886.38
2022-11-17T17:04:20.130Z,96875.38
2022-11-17T17:06:49.116Z,96882.56
2022-11-17T17:09:23.360Z,96882.59
2022-11-17T17:11:56.594Z,96879.44
2022-11-17T17:14:25.580Z,96876.19
2022-11-17T17:16:54.651Z,96883.25
2022-11-17T17:19:24.560Z,96884.88
2022-11-17T17:21:54.016Z,96887.91
2022-11-17T17:24:24.550Z,96888.25
2022-11-17T17:26:53.506Z,96894.19
2022-11-17T17:29:22.505Z,96890.25
2022-11-17T17:31:51.576Z,96884.03
2022-11-17T17:34:20.726Z,96882.59
2022-11-17T17:36:49.659Z,96891.00
2022-11-17T17:39:19.831Z,96893.00
2022-11-17T17:41:50.253Z,96893.00
2022-11-17T17:44:20.648Z,96900.53
2022-11-17T17:46:49.651Z,96904.06
2022-11-17T17:49:19.729Z,96899.63
2022-11-17T17:51:49.069Z,96909.41
2022-11-17T17:54:20.864Z,96904.63
2022-11-17T17:56:51.405Z,96914.13
2022-11-17T17:59:20.630Z,96908.31
2022-11-17T18:01:49.790Z,96914.81
2022-11-17T18:04:18.775Z,96915.59
2022-11-17T18:06:49.082Z,96910.53
2022-11-17T18:09:20.305Z,96907.38
2022-11-17T18:11:51.589Z,96920.09
2022-11-17T18:14:24.476Z,96916.91
2022-11-17T18:16:54.831Z,96918.78
2022-11-17T18:19:29.785Z,96919.06
2022-11-17T18:22:02.156Z,96918.88
2022-11-17T18:24:31.205Z,96920.78
2022-11-17T18:27:01.770Z,96913.53
2022-11-17T18:29:30.751Z,96918.66
2022-11-17T18:32:03.394Z,96917.06
2022-11-17T18:34:32.870Z,96919.63
2022-11-17T18:37:02.619Z,96916.75
2022-11-17T18:39:32.987Z,96922.06
2022-11-17T18:42:03.595Z,96925.06
2022-11-17T18:44:32.776Z,96925.88
2022-11-17T18:47:03.250Z,96926.31
2022-11-17T18:49:34.653Z,96935.91
2022-11-17T18:52:04.572Z,96932.75
2022-11-17T18:54:33.734Z,96932.75
2022-11-17T18:57:04.585Z,96934.53
2022-11-17T18:59:33.639Z,96940.44
2022-11-17T19:02:03.029Z,96935.81
2022-11-17T19:04:32.367Z,96935.06
2022-11-17T19:07:01.946Z,96939.06
2022-11-17T19:09:31.556Z,96934.91
2022-11-17T19:12:00.610Z,96938.13
2022-11-17T19:14:31.200Z,96931.84
2022-11-17T19:17:01.045Z,96922.31
2022-11-17T19:19:30.140Z,96928.69
2022-11-17T19:21:59.459Z,96917.44
2022-11-17T19:24:28.479Z,96911.06
2022-11-17T19:26:57.707Z,96923.00
2022-11-17T19:29:27.606Z,96929.75
2022-11-17T19:32:00.411Z,96918.09
2022-11-17T19:34:29.511Z,96917.75
2022-11-17T19:36:58.520Z,96924.53
2022-11-17T19:39:27.596Z,96918.91
2022-11-17T19:41:56.755Z,96913.25
2022-11-17T19:44:25.789Z,96908.88
2022-11-17T19:46:54.708Z,96901.09
2022-11-17T19:49:25.368Z,96901.97
2022-11-17T19:51:54.309Z,96900.75
2022-11-17T19:54:23.263Z,96896.13
2022-11-17T19:56:56.488Z,96905.09
2022-11-17T19:59:25.817Z,96907.78
2022-11-17T20:01:55.066Z,96913.75
2022-11-17T20:04:25.837Z,96908.53
2022-11-17T20:06:55.487Z,96909.00
2022-11-17T20:09:24.661Z,96899.41
2022-11-17T20:11:54.789Z,96885.38
2022-11-17T20:14:25.110Z,96885.63
2022-11-17T20:16:54.228Z,96887.72
2022-11-17T20:19:25.443Z,96884.69
2022-11-17T20:21:57.581Z,96889.28
2022-11-17T20:24:27.635Z,96881.81
2022-11-17T20:26:56.849Z,96883.56
2022-11-17T20:29:25.879Z,96880.50
2022-11-17T20:31:54.868Z,96884.13
2022-11-17T20:34:25.395Z,96880.84
2022-11-17T20:36:54.617Z,96879.28
2022-11-17T20:39:23.711Z,96866.53
2022-11-17T20:41:53.564Z,96875.59
2022-11-17T20:44:25.476Z,96880.97
2022-11-17T20:46:56.523Z,96875.50
2022-11-17T20:49:28.291Z,96876.41
2022-11-17T20:51:57.394Z,96868.03
2022-11-17T20:54:26.544Z,96875.59
2022-11-17T20:56:55.442Z,96877.91
2022-11-17T20:59:24.609Z,96871.78
2022-11-17T21:01:53.873Z,96869.69
2022-11-17T21:04:22.971Z,96873.50
2022-11-17T21:06:53.440Z,96867.47
2022-11-17T21:09:22.625Z,96867.00
2022-11-17T21:11:58.051Z,96877.59
2022-11-17T21:14:28.632Z,96873.66
2022-11-17T21:17:00.804Z,96859.56
2022-11-17T21:19:32.360Z,96856.06
2022-11-17T21:22:04.547Z,96859.56
2022-11-17T21:24:33.539Z,96861.25
2022-11-17T21:27:02.486Z,96861.25
2022-11-17T21:29:33.050Z,96851.59
2022-11-17T21:32:02.076Z,96857.25
2022-11-17T21:34:31.133Z,96849.59
2022-11-17T21:37:00.446Z,96841.38
2022-11-17T21:39:31.183Z,96843.72
2022-11-17T21:42:00.909Z,96850.09
2022-11-17T21:44:30.016Z,96846.22
2022-11-17T21:46:59.984Z,96844.56
2022-11-17T21:49:29.113Z,96841.00
2022-11-17T21:51:58.091Z,96839.16
2022-11-17T21:54:27.117Z,96842.56
2022-11-17T21:56:57.658Z,96842.09
2022-11-17T21:59:26.693Z,96848.25
2022-11-17T22:01:55.947Z,96845.47
2022-11-17T22:04:25.012Z,96845.91
2022-11-17T22:06:54.026Z,96842.22
2022-11-17T22:09:23.181Z,96851.78
2022-11-17T22:11:52.237Z,96845.47
2022-11-17T22:14:23.073Z,96852.63
2022-11-17T22:16:55.050Z,96860.25
2022-11-17T22:19:27.634Z,96849.56
2022-11-17T22:21:56.880Z,96843.66
2022-11-17T22:24:26.293Z,96843.47
2022-11-17T22:26:55.286Z,96834.03
2022-11-17T22:29:25.911Z,96838.88
2022-11-17T22:31:54.939Z,96823.22
2022-11-17T22:34:24.047Z,96819.59
2022-11-17T22:36:53.110Z,96814.81
2022-11-17T22:39:22.277Z,96795.59
2022-11-17T22:41:51.371Z,96801.19
2022-11-17T22:44:20.639Z,96795.88
2022-11-17T22:46:50.964Z,96794.66
2022-11-17T22:49:20.252Z,96796.81
2022-11-17T22:52:04.458Z,96791.75
2022-11-17T22:54:33.476Z,96789.97
2022-11-17T22:57:02.847Z,96776.94
2022-11-17T22:59:32.206Z,96776.09
2022-11-17T23:02:02.697Z,96757.88
2022-11-17T23:04:31.621Z,96752.94
2022-11-17T23:07:00.701Z,96753.72
2022-11-17T23:09:30.518Z,96754.56
2022-11-17T23:11:59.553Z,96756.50
2022-11-17T23:14:29.321Z,96744.69
2022-11-17T23:16:58.362Z,96746.25
2022-11-17T23:19:28.728Z,96750.25
2022-11-17T23:21:57.678Z,96750.44
2022-11-17T23:24:26.611Z,96751.69
2022-11-17T23:26:55.662Z,96750.31
2022-11-17T23:29:24.608Z,96734.41
2022-11-17T23:31:53.962Z,96737.63
2022-11-17T23:34:22.908Z,96729.75
2022-11-17T23:36:53.291Z,96729.94
2022-11-17T23:39:22.273Z,96715.69
2022-11-17T23:41:51.247Z,96708.88
2022-11-17T23:44:20.171Z,96704.19
2022-11-17T23:46:49.266Z,96710.03
2022-11-17T23:49:18.496Z,96714.78
2022-11-17T23:51:47.797Z,96727.81
2022-11-17T23:54:18.113Z,96730.03
2022-11-17T23:56:49.004Z,96720.59
2022-11-17T23:59:18.121Z,96730.50
